createdAt,value
2024-03-14T00:11:10.330Z,99884.03
2024-03-14T00:26:12.582Z,99876.16
2024-03-14T00:41:17.568Z,99860.66
2024-03-14T00:56:19.515Z,99858.22
2024-03-14T01:11:21.455Z,99836.41
2024-03-14T01:26:23.521Z,99831.22
2024-03-14T01:41:25.612Z,99820.72
2024-03-14T01:56:28.502Z,99815.47
2024-03-14T02:11:32.567Z,99807.56
2024-03-14T02:26:41.040Z,99804.63
2024-03-14T02:41:42.996Z,99805.84
2024-03-14T02:56:48.955Z,99802.69
2024-03-14T03:11:51.547Z,99797.41
2024-03-14T03:26:53.663Z,99809.22
2024-03-14T03:41:55.753Z,99805.44
2024-03-14T03:56:58.364Z,99807.31
2024-03-14T04:12:01.391Z,99801.47
2024-03-14T04:27:06.754Z,99811.63
2024-03-14T04:42:09.619Z,99814.22
2024-03-14T04:57:11.619Z,99835.94
2024-03-14T05:12:15.456Z,99831.56
2024-03-14T05:27:17.419Z,99836.34
2024-03-14T05:42:22.351Z,99844.03
2024-03-14T05:57:24.430Z,99841.28
2024-03-14T06:12:26.472Z,99839.50
2024-03-14T06:27:28.595Z,99838.72
2024-03-14T06:42:30.700Z,99857.69
2024-03-14T06:57:33.549Z,99859.13
2024-03-14T07:12:36.988Z,99864.53
2024-03-14T07:27:39.572Z,99881.00
2024-03-14T07:42:42.012Z,99867.03
2024-03-14T07:57:43.914Z,99871.81
2024-03-14T08:12:45.830Z,99880.22
2024-03-14T08:27:48.558Z,99881.28
2024-03-14T08:42:53.122Z,99889.59
2024-03-14T08:57:54.954Z,99882.91
2024-03-14T09:12:57.081Z,99880.72
2024-03-14T09:28:01.070Z,99869.19
2024-03-14T09:43:06.319Z,99860.63
2024-03-14T09:58:10.192Z,99857.09
2024-03-14T10:13:12.148Z,99844.19
2024-03-14T10:28:19.236Z,99841.69
2024-03-14T10:43:21.532Z,99828.28
2024-03-14T10:58:27.016Z,99819.50
2024-03-14T11:13:34.075Z,99808.28
2024-03-14T11:28:38.588Z,99798.13
2024-03-14T11:43:43.151Z,99781.03
2024-03-14T11:58:45.958Z,99783.34
2024-03-14T12:13:54.218Z,99762.94
2024-03-14T12:28:57.615Z,99765.97
2024-03-14T12:43:59.930Z,99751.44
2024-03-14T12:59:02.696Z,99738.28
2024-03-14T13:14:13.344Z,99729.00
2024-03-14T13:29:16.808Z,99730.84
2024-03-14T13:44:20.093Z,99707.34
2024-03-14T13:59:23.087Z,99710.78
2024-03-14T14:14:25.131Z,99697.97
2024-03-14T14:29:27.033Z,99689.97
2024-03-14T14:44:28.901Z,99686.59
2024-03-14T14:59:31.331Z,99673.06
2024-03-14T15:14:33.223Z,99658.38
2024-03-14T15:29:37.602Z,99658.00
2024-03-14T15:44:40.219Z,99656.97
2024-03-14T15:59:43.334Z,99649.59
2024-03-14T16:14:48.241Z,99647.84
2024-03-14T16:29:52.631Z,99652.06
2024-03-14T16:44:54.356Z,99668.59
2024-03-14T16:59:57.408Z,99666.69
2024-03-14T17:15:04.247Z,99683.22
2024-03-14T17:30:09.520Z,99687.81
2024-03-14T17:45:16.197Z,99696.44
2024-03-14T18:00:19.160Z,99705.47
2024-03-14T18:15:21.714Z,99704.41
2024-03-14T18:30:24.084Z,99704.66
2024-03-14T18:45:26.545Z,99705.00
2024-03-14T19:00:32.295Z,99698.75
2024-03-14T19:15:34.548Z,99699.38
2024-03-14T19:30:37.163Z,99699.19
2024-03-14T19:45:41.187Z,99692.53
2024-03-14T20:00:43.215Z,99697.59
2024-03-14T20:15:45.590Z,99686.91
2024-03-14T20:30:48.461Z,99676.25
2024-03-14T20:45:51.389Z,99676.09
2024-03-14T21:00:53.753Z,99677.88
2024-03-14T21:15:55.759Z,99671.84
2024-03-14T21:30:57.991Z,99671.25
2024-03-14T21:45:59.964Z,99675.69
2024-03-14T22:01:02.045Z,99674.31
2024-03-14T22:16:05.342Z,99661.75
2024-03-14T22:31:12.218Z,99659.84
2024-03-14T22:46:14.674Z,99660.56
2024-03-14T23:01:16.710Z,99655.66
2024-03-14T23:16:18.742Z,99646.03
2024-03-14T23:31:22.200Z,99638.63
2024-03-14T23:46:26.115Z,99645.03
